»·PEaware :: WAT390 CD69-KTEX

WAT390 :: CD69-KTEX

FLIGHT INFORMATION

Flight Status: Arrived
Operator:
Walker Air Transport
More flights by this operator :: More flights under this callsign
Pilot: Ewen S. (18928)
Aircraft: MITSUBISHI MU-2 MARQUISE
(MU2)
More flights by this aircraft type
Origin: CD69 Morning Shadows Ranch
Canada
Destination: KTEX Telluride Regl
United States
More flights between these airports :: More routes between these airports
Route: LUISS V484 HBU ETL
File this flight plan on PilotEdge
Remarks:
Altitude:
(Current/Filed)
20,000ft
Speed:
(Current/Filed)
310kts
Departed: 09-Aug-23 01:17 PM
Arrived: 09-Aug-23 01:54 PM
Distance/Time
Traveled:
66nm/0:36
Distance/Time
To Go:
Arrived

Flight Plot

Page will automatically refresh every two minutes.

Flight plan parsing failed; only flown route is shown


Map Options




Map Legend


Flown Route
Filed Route
Departure Airport
Arrival Airport
Navaid (VOR, NDB)
Fix

Horizontal Profiles

Position Reports

Time Latitude Longitude Heading Altitude Ground
Speed
09-Aug-23 12:59 37.745891 -106.527876 171 8327ft 0kts
09-Aug-23 13:00 37.745891 -106.527876 171 8327ft 0kts
09-Aug-23 13:01 37.745891 -106.527876 171 8327ft 0kts
09-Aug-23 13:02 37.745891 -106.527876 171 8327ft 0kts
09-Aug-23 13:03 37.745891 -106.527876 171 8327ft 0kts
09-Aug-23 13:04 37.745891 -106.527876 171 8327ft 0kts
09-Aug-23 13:05 37.745891 -106.527876 171 8327ft 0kts
09-Aug-23 13:06 37.745891 -106.527876 172 8327ft 0kts
09-Aug-23 13:07 37.745891 -106.527876 172 8327ft 0kts
09-Aug-23 13:08 37.745891 -106.527876 172 8327ft 0kts
09-Aug-23 13:09 37.745891 -106.527876 172 8327ft 0kts
09-Aug-23 13:10 37.745891 -106.527876 172 8327ft 0kts
09-Aug-23 13:11 37.745891 -106.527876 172 8327ft 0kts
09-Aug-23 13:12 37.745891 -106.527876 172 8327ft 0kts
09-Aug-23 13:13 37.745891 -106.527876 172 8327ft 0kts
09-Aug-23 13:14 37.745891 -106.527876 172 8327ft 0kts
09-Aug-23 13:15 37.746436 -106.526655 159 8322ft 15kts
09-Aug-23 13:16 37.718290 -106.509821 133 9031ft 172kts
09-Aug-23 13:17 37.737558 -106.478906 317 10872ft 190kts
09-Aug-23 13:18 37.749431 -106.541521 314 9134ft 158kts
09-Aug-23 13:19 37.754863 -106.524786 195 8844ft 140kts
09-Aug-23 13:21 37.746030 -106.526618 171 8321ft 0kts
09-Aug-23 13:22 37.746030 -106.526617 171 8321ft 0kts
09-Aug-23 13:23 37.746029 -106.526617 171 8321ft 0kts
09-Aug-23 13:24 37.745682 -106.526558 173 8320ft 1kts
09-Aug-23 13:25 37.730041 -106.521026 142 8546ft 126kts
09-Aug-23 13:26 37.717711 -106.476494 29 10289ft 176kts
09-Aug-23 13:27 37.765157 -106.481482 347 12649ft 181kts
09-Aug-23 13:28 37.815260 -106.480934 23 14774ft 190kts
09-Aug-23 13:29 37.864416 -106.451978 24 16364ft 212kts
09-Aug-23 13:30 37.925505 -106.415605 24 16363ft 266kts
09-Aug-23 13:31 37.994326 -106.374518 24 16346ft 276kts
09-Aug-23 13:32 38.052998 -106.411676 294 16321ft 277kts
09-Aug-23 13:33 38.052721 -106.509006 264 16375ft 279kts
09-Aug-23 13:34 38.046364 -106.606823 265 16369ft 279kts
09-Aug-23 13:35 38.039897 -106.704968 265 16347ft 278kts
09-Aug-23 13:36 38.033364 -106.803070 264 16325ft 281kts
09-Aug-23 13:37 38.026701 -106.901571 264 16321ft 281kts
09-Aug-23 13:38 38.019953 -107.000361 264 16210ft 280kts
09-Aug-23 13:39 38.013132 -107.098703 265 16205ft 279kts
09-Aug-23 13:40 38.006299 -107.196339 264 16297ft 279kts
09-Aug-23 13:41 37.999347 -107.294403 264 16312ft 279kts
09-Aug-23 13:42 37.992322 -107.392254 265 16312ft 279kts
09-Aug-23 13:43 37.985146 -107.490938 264 15937ft 282kts
09-Aug-23 13:44 37.977897 -107.589625 264 15333ft 280kts
09-Aug-23 13:45 37.970635 -107.687380 264 14739ft 278kts
09-Aug-23 13:46 37.963320 -107.784654 264 14274ft 277kts
09-Aug-23 13:47 37.956047 -107.880380 265 13244ft 269kts
09-Aug-23 13:48 37.953244 -107.973525 253 12197ft 264kts
09-Aug-23 13:49 37.948461 -108.060935 302 11246ft 251kts
09-Aug-23 13:50 38.000385 -108.043109 85 10214ft 256kts
09-Aug-23 13:51 37.967406 -107.975912 123 10143ft 190kts
09-Aug-23 13:52 37.956402 -107.921466 100 9133ft 139kts
09-Aug-23 13:53 37.952431 -107.896852 301 9074ft 10kts
09-Aug-23 13:54 37.953138 -107.900148 286 9074ft 6kts
09-Aug-23 13:55 37.953814 -107.901133 325 9074ft 0kts
09-Aug-23 13:56 37.953813 -107.901133 325 9074ft 0kts

Navigation Log

Ident Type
Flight plan parsing failed, navigation log unavailable